Time;durP1;ratioP1;P1;durP2;ratioP2;P2;SDS_P1;SDS_P2;PMS_P1;PMS_P2;Temp;Humidity;BMP_temperature;BMP_pressure;BME280_temperature;BME280_humidity;BME280_pressure;Samples;Min_cycle;Max_cycle;Signal;HPM_P1;HPM_P2
2022/04/08 00:01:01;;;;;;;6.05;5.25;;;;;;;-144.47;100.00;61586.06;6154791;23;20021;-78
2022/04/08 00:03:27;;;;;;;7.25;5.65;;;;;;;-144.47;100.00;61586.06;6180744;23;20013;-77
2022/04/08 00:05:54;;;;;;;5.60;5.05;;;;;;;-144.47;100.00;61586.06;6180934;23;20020;-78
2022/04/08 00:08:22;;;;;;;6.35;5.53;;;;;;;-144.47;100.00;61586.06;6181434;23;20023;-75
2022/04/08 00:10:48;;;;;;;7.43;5.63;;;;;;;-144.47;100.00;61586.06;6181454;23;20108;-78
2022/04/08 00:13:15;;;;;;;10.13;6.15;;;;;;;-144.47;100.00;61586.06;6182684;23;20087;-77
2022/04/08 00:15:41;;;;;;;6.45;5.38;;;;;;;-144.47;100.00;61586.06;6182497;23;20021;-77
2022/04/08 00:18:08;;;;;;;10.18;6.35;;;;;;;-144.47;100.00;61586.06;6182510;23;20020;-78
2022/04/08 00:20:34;;;;;;;8.55;6.43;;;;;;;-144.47;100.00;61586.06;6160790;23;20013;-78
2022/04/08 00:23:03;;;;;;;7.07;5.65;;;;;;;-144.47;100.00;61586.06;6183190;23;20020;-78
2022/04/08 00:25:29;;;;;;;11.43;6.20;;;;;;;-144.47;100.00;61586.06;6182622;23;20038;-79
2022/04/08 00:27:54;;;;;;;7.20;6.32;;;;;;;-144.47;100.00;61586.06;6181427;23;20017;-78
2022/04/08 00:30:20;;;;;;;6.35;5.57;;;;;;;-144.47;100.00;61586.06;6156162;23;20023;-78
2022/04/08 00:32:45;;;;;;;11.02;6.68;;;;;;;-144.47;100.00;61586.06;6181563;23;20017;-79
2022/04/08 00:35:11;;;;;;;8.77;5.90;;;;;;;-144.47;100.00;61586.06;6181759;23;20055;-78
2022/04/08 00:37:39;;;;;;;9.75;6.05;;;;;;;-144.47;100.00;61586.06;6181892;23;20013;-78
2022/04/08 00:40:07;;;;;;;10.32;6.50;;;;;;;-144.47;100.00;61586.06;6181640;23;20063;-78
2022/04/08 00:42:33;;;;;;;6.70;5.88;;;;;;;-144.47;100.00;61586.06;6182201;23;20020;-77
2022/04/08 00:44:59;;;;;;;7.88;5.93;;;;;;;-144.47;100.00;61586.06;6181513;23;20013;-75
2022/04/08 00:47:24;;;;;;;10.70;6.38;;;;;;;-144.47;100.00;61586.06;6181432;23;20060;-77
2022/04/08 00:49:53;;;;;;;8.88;6.32;;;;;;;-144.47;100.00;61586.06;6180857;23;20087;-77
2022/04/08 00:52:19;;;;;;;10.45;6.72;;;;;;;-144.47;100.00;61586.06;6181728;23;20307;-77
2022/04/08 00:54:45;;;;;;;6.70;6.03;;;;;;;-144.47;100.00;61586.06;6181502;23;20079;-79
2022/04/08 00:57:12;;;;;;;8.63;6.53;;;;;;;-144.47;100.00;61586.06;6181737;23;20013;-78
2022/04/08 00:59:38;;;;;;;7.57;6.88;;;;;;;-144.47;100.00;61586.06;6177919;23;20013;-77
2022/04/08 01:02:04;;;;;;;8.15;7.35;;;;;;;-144.47;100.00;61586.06;6152076;23;20028;-77
2022/04/08 01:04:29;;;;;;;10.18;7.53;;;;;;;-144.47;100.00;61586.06;6180022;23;20020;-78
2022/04/08 01:06:55;;;;;;;9.40;7.30;;;;;;;-144.47;100.00;61586.06;6181090;23;20449;-78
2022/04/08 01:09:22;;;;;;;9.32;7.38;;;;;;;-144.47;100.00;61586.06;6181980;23;20583;-77
2022/04/08 01:11:47;;;;;;;7.82;7.03;;;;;;;-144.47;100.00;61586.06;6181536;23;20036;-77
2022/04/08 01:14:15;;;;;;;9.50;7.53;;;;;;;-144.47;100.00;61586.06;6189466;23;20005;-77
2022/04/08 01:16:41;;;;;;;10.65;7.45;;;;;;;-144.47;100.00;61586.06;6196283;23;20008;-78
2022/04/08 01:19:07;;;;;;;8.52;7.13;;;;;;;-144.47;100.00;61586.06;6188716;23;20093;-78
2022/04/08 01:21:33;;;;;;;8.50;7.40;;;;;;;-144.47;100.00;61586.06;6182279;23;20060;-76
2022/04/08 01:24:00;;;;;;;11.38;7.82;;;;;;;-144.47;100.00;61586.06;6182394;23;20326;-77
2022/04/08 01:26:26;;;;;;;9.75;7.15;;;;;;;-144.47;100.00;61586.06;6182949;23;20021;-78
2022/04/08 01:28:53;;;;;;;10.38;7.82;;;;;;;-144.47;100.00;61586.06;6182264;23;20424;-77
2022/04/08 01:31:18;;;;;;;10.52;7.50;;;;;;;-144.47;100.00;61586.06;6182445;23;20020;-77
2022/04/08 01:33:44;;;;;;;8.45;7.18;;;;;;;-144.47;100.00;61586.06;6181699;23;20037;-75
2022/04/08 01:36:10;;;;;;;13.88;8.32;;;;;;;-144.47;100.00;61586.06;6182098;23;20446;-78
2022/04/08 01:38:35;;;;;;;10.88;7.72;;;;;;;-144.47;100.00;61586.06;6181982;23;20009;-77
2022/04/08 01:41:01;;;;;;;8.07;7.38;;;;;;;-144.47;100.00;61586.06;6154761;23;20075;-79
2022/04/08 01:43:27;;;;;;;9.15;7.97;;;;;;;-144.47;100.00;61586.06;6155496;23;20017;-78
2022/04/08 01:45:53;;;;;;;9.98;7.70;;;;;;;-144.47;100.00;61586.06;6182108;23;20027;-78
2022/04/08 01:48:18;;;;;;;11.02;7.78;;;;;;;-144.47;100.00;61586.06;6182116;23;20013;-78
2022/04/08 01:50:44;;;;;;;7.80;7.18;;;;;;;-144.47;100.00;61586.06;6182420;23;20013;-76
2022/04/08 01:53:10;;;;;;;9.00;7.15;;;;;;;-144.47;100.00;61586.06;6182229;23;20020;-77
2022/04/08 01:55:36;;;;;;;8.20;7.00;;;;;;;-144.47;100.00;61586.06;6182558;23;20084;-77
2022/04/08 01:58:02;;;;;;;8.00;6.70;;;;;;;-144.47;100.00;61586.06;6181867;23;20088;-76
2022/04/08 02:00:29;;;;;;;9.10;7.40;;;;;;;-144.47;100.00;61586.06;6182392;23;20011;-78
2022/04/08 02:02:55;;;;;;;8.18;7.38;;;;;;;-144.47;100.00;61586.06;6181346;23;20001;-76
2022/04/08 02:05:21;;;;;;;11.02;7.80;;;;;;;-144.47;100.00;61586.06;6182009;23;20063;-77
2022/04/08 02:07:46;;;;;;;8.02;7.22;;;;;;;-144.47;100.00;61586.06;6181924;23;20434;-77
2022/04/08 02:10:12;;;;;;;10.50;6.82;;;;;;;-144.47;100.00;61586.06;6182296;23;20079;-78
2022/04/08 02:12:37;;;;;;;8.18;6.85;;;;;;;-144.47;100.00;61586.06;6182407;23;20435;-76
2022/04/08 02:15:03;;;;;;;9.32;7.22;;;;;;;-144.47;100.00;61586.06;6154948;23;20394;-79
2022/04/08 02:17:30;;;;;;;11.18;7.82;;;;;;;-144.47;100.00;61586.06;6181040;23;20009;-78
2022/04/08 02:19:56;;;;;;;9.60;6.85;;;;;;;-144.47;100.00;61586.06;6180552;23;20020;-77
2022/04/08 02:22:26;;;;;;;8.52;7.18;;;;;;;-144.47;100.00;61586.06;6181145;23;20005;-78
2022/04/08 02:24:52;;;;;;;7.95;7.15;;;;;;;-144.47;100.00;61586.06;6181249;23;20063;-77
2022/04/08 02:27:18;;;;;;;8.05;7.05;;;;;;;-144.47;100.00;61586.06;6186049;23;20101;-76
2022/04/08 02:29:43;;;;;;;11.30;7.15;;;;;;;-144.47;100.00;61586.06;6188467;23;20036;-76
2022/04/08 02:32:10;;;;;;;8.15;6.85;;;;;;;-144.47;100.00;61586.06;6154056;23;20307;-75
2022/04/08 02:34:39;;;;;;;10.57;7.90;;;;;;;-144.47;100.00;61586.06;6181356;23;20013;-77
2022/04/08 02:37:05;;;;;;;8.60;7.90;;;;;;;-144.47;100.00;61586.06;6181172;23;20055;-77
2022/04/08 02:39:32;;;;;;;9.13;8.43;;;;;;;-144.47;100.00;61586.06;6181110;23;20009;-75
2022/04/08 02:41:57;;;;;;;10.52;7.82;;;;;;;-144.47;100.00;61586.06;6180911;23;20028;-77
2022/04/08 02:44:23;;;;;;;9.77;7.50;;;;;;;-144.47;100.00;61586.06;6181005;23;20020;-78
2022/04/08 02:46:49;;;;;;;8.43;7.72;;;;;;;-144.47;100.00;61586.06;6153864;23;20009;-77
2022/04/08 02:49:14;;;;;;;8.93;7.53;;;;;;;-144.47;100.00;61586.06;6181099;23;20425;-77
2022/04/08 02:51:40;;;;;;;8.45;7.75;;;;;;;-144.47;100.00;61586.06;6182271;23;20380;-77
2022/04/08 02:54:05;;;;;;;8.07;7.38;;;;;;;-144.47;100.00;61586.06;6183194;23;20017;-77
2022/04/08 02:56:31;;;;;;;9.15;8.25;;;;;;;-144.47;100.00;61586.06;6182502;23;20012;-77
2022/04/08 02:58:57;;;;;;;8.65;7.80;;;;;;;-144.47;100.00;61586.06;6182186;23;20059;-77
2022/04/08 03:01:23;;;;;;;8.63;7.75;;;;;;;-144.47;100.00;61586.06;6182593;23;20005;-77
2022/04/08 03:03:49;;;;;;;9.95;7.80;;;;;;;-144.47;100.00;61586.06;6155316;23;20385;-76
2022/04/08 03:06:14;;;;;;;9.00;7.75;;;;;;;-144.47;100.00;61586.06;6182621;23;20009;-76
2022/04/08 03:08:40;;;;;;;10.35;8.27;;;;;;;-144.47;100.00;61586.06;6182113;23;20020;-77
2022/04/08 03:11:06;;;;;;;11.73;7.78;;;;;;;-144.47;100.00;61586.06;6181971;23;20020;-77
2022/04/08 03:13:32;;;;;;;10.02;7.70;;;;;;;-144.47;100.00;61586.06;6182111;23;20342;-77
2022/04/08 03:15:57;;;;;;;11.20;8.13;;;;;;;-144.47;100.00;61586.06;6180851;23;20083;-75
2022/04/08 03:18:23;;;;;;;11.88;7.85;;;;;;;-144.47;100.00;61586.06;6181146;23;20342;-77
2022/04/08 03:20:48;;;;;;;10.18;8.30;;;;;;;-144.47;100.00;61586.06;6181025;23;20119;-77
2022/04/08 03:23:14;;;;;;;9.40;7.80;;;;;;;-144.47;100.00;61586.06;6181413;23;20013;-77
2022/04/08 03:25:39;;;;;;;12.82;7.70;;;;;;;-144.47;100.00;61586.06;6181868;23;20139;-78
2022/04/08 03:28:05;;;;;;;7.90;7.10;;;;;;;-144.47;100.00;61586.06;6155695;23;20035;-76
2022/04/08 03:30:31;;;;;;;14.65;7.78;;;;;;;-144.47;100.00;61586.06;6182661;23;20009;-77
2022/04/08 03:32:57;;;;;;;9.13;8.10;;;;;;;-144.47;100.00;61586.06;6181853;23;20017;-77
2022/04/08 03:35:23;;;;;;;10.15;7.68;;;;;;;-144.47;100.00;61586.06;6183388;23;20486;-76
2022/04/08 03:37:48;;;;;;;9.45;7.85;;;;;;;-144.47;100.00;61586.06;6182316;23;20104;-76
2022/04/08 03:40:14;;;;;;;10.27;8.27;;;;;;;-144.47;100.00;61586.06;6182891;23;20009;-77
2022/04/08 03:42:39;;;;;;;10.38;7.72;;;;;;;-144.47;100.00;61586.06;6182319;23;20089;-76
2022/04/08 03:45:06;;;;;;;10.40;7.45;;;;;;;-144.47;100.00;61586.06;6183495;23;20013;-76
2022/04/08 03:47:31;;;;;;;12.15;6.82;;;;;;;-144.47;100.00;61586.06;6183386;23;20013;-77
2022/04/08 03:49:57;;;;;;;8.00;7.20;;;;;;;-144.47;100.00;61586.06;6183198;23;20021;-78
2022/04/08 03:52:23;;;;;;;8.75;7.47;;;;;;;-144.47;100.00;61586.06;6183907;23;20017;-76
2022/04/08 03:54:49;;;;;;;8.93;7.22;;;;;;;-144.47;100.00;61586.06;6183374;23;20012;-77
2022/04/08 03:57:14;;;;;;;10.63;8.20;;;;;;;-144.47;100.00;61586.06;6183122;23;20012;-78
2022/04/08 03:59:43;;;;;;;11.23;9.45;;;;;;;-144.47;100.00;61586.06;6183276;23;20024;-77
2022/04/08 04:02:08;;;;;;;10.90;8.23;;;;;;;-144.47;100.00;61586.06;6182748;23;20300;-76
2022/04/08 04:04:34;;;;;;;9.32;7.13;;;;;;;-144.47;100.00;61586.06;6183387;23;20108;-76
2022/04/08 04:07:00;;;;;;;10.18;8.00;;;;;;;-144.47;100.00;61586.06;6183055;23;20048;-76
2022/04/08 04:09:26;;;;;;;10.10;8.02;;;;;;;-144.47;100.00;61586.06;6183513;23;20032;-76
2022/04/08 04:11:52;;;;;;;8.68;7.80;;;;;;;-144.47;100.00;61586.06;6182852;23;20005;-77
2022/04/08 04:14:17;;;;;;;11.57;7.53;;;;;;;-144.47;100.00;61586.06;6182317;23;20028;-77
2022/04/08 04:16:43;;;;;;;13.07;7.90;;;;;;;-144.47;100.00;61586.06;6182793;23;20063;-77
2022/04/08 04:19:09;;;;;;;10.95;8.43;;;;;;;-144.47;100.00;61586.06;6183440;23;20033;-77
2022/04/08 04:21:34;;;;;;;8.07;7.28;;;;;;;-144.47;100.00;61586.06;6183414;23;20455;-77
2022/04/08 04:24:00;;;;;;;10.02;7.57;;;;;;;-144.47;100.00;61586.06;6183101;23;20016;-78
2022/04/08 04:26:25;;;;;;;10.68;7.53;;;;;;;-144.47;100.00;61586.06;6183243;23;20009;-77
2022/04/08 04:28:51;;;;;;;9.23;7.55;;;;;;;-144.47;100.00;61586.06;6182864;23;20009;-76
2022/04/08 04:31:16;;;;;;;13.90;7.78;;;;;;;-144.47;100.00;61586.06;6183613;23;20438;-76
2022/04/08 04:33:42;;;;;;;11.18;7.72;;;;;;;-144.47;100.00;61586.06;6183713;23;20366;-77
2022/04/08 04:36:13;;;;;;;12.23;8.07;;;;;;;-144.47;100.00;61586.06;6183716;23;20065;-78
2022/04/08 04:38:38;;;;;;;7.80;7.07;;;;;;;-144.47;100.00;61586.06;6186174;23;20009;-79
2022/04/08 04:41:04;;;;;;;10.30;7.93;;;;;;;-144.47;100.00;61586.06;6184511;23;20417;-78
2022/04/08 04:43:30;;;;;;;8.25;7.38;;;;;;;-144.47;100.00;61586.06;6185206;23;20429;-75
2022/04/08 04:45:55;;;;;;;16.08;7.95;;;;;;;-144.47;100.00;61586.06;6163211;23;20059;-78
2022/04/08 04:48:22;;;;;;;9.45;8.43;;;;;;;-144.47;100.00;61586.06;6191673;23;20059;-78
2022/04/08 04:50:48;;;;;;;13.00;7.65;;;;;;;-144.47;100.00;61586.06;6187936;23;20009;-76
2022/04/08 04:53:14;;;;;;;13.35;8.05;;;;;;;-144.47;100.00;61586.06;6159772;23;20435;-78
2022/04/08 04:55:39;;;;;;;8.25;7.28;;;;;;;-144.47;100.00;61586.06;6185196;23;20017;-77
2022/04/08 04:58:05;;;;;;;9.90;7.13;;;;;;;-144.47;100.00;61586.06;6184553;23;20021;-78
2022/04/08 05:00:31;;;;;;;13.43;7.93;;;;;;;-144.47;100.00;61586.06;6183572;23;20005;-78
2022/04/08 05:02:56;;;;;;;10.85;8.13;;;;;;;-144.47;100.00;61586.06;6184143;23;20012;-86
2022/04/08 05:05:22;;;;;;;12.68;7.90;;;;;;;-144.47;100.00;61586.06;6191308;23;20028;-85
2022/04/08 05:07:47;;;;;;;9.20;7.80;;;;;;;-144.47;100.00;61586.06;6195142;23;20013;-81
2022/04/08 05:10:13;;;;;;;11.45;7.57;;;;;;;-144.47;100.00;61586.06;6194976;23;20183;-82
2022/04/08 05:12:38;;;;;;;11.90;8.88;;;;;;;-144.47;100.00;61586.06;6199635;23;20009;-83
2022/04/08 05:15:06;;;;;;;13.05;8.48;;;;;;;-144.47;100.00;61586.06;6200750;23;20028;-83
2022/04/08 05:17:35;;;;;;;13.27;8.20;;;;;;;-144.47;100.00;61586.06;6187235;23;20013;-84
2022/04/08 05:20:01;;;;;;;11.07;7.88;;;;;;;-144.47;100.00;61586.06;6186772;23;20091;-87
2022/04/08 05:22:27;;;;;;;12.15;7.85;;;;;;;-144.47;100.00;61586.06;6159300;23;20013;-82
2022/04/08 05:24:52;;;;;;;11.05;7.97;;;;;;;-144.47;100.00;61586.06;6183404;23;20017;-80
2022/04/08 05:27:18;;;;;;;10.57;8.65;;;;;;;-144.47;100.00;61586.06;6183832;23;20004;-81
2022/04/08 05:29:43;;;;;;;11.27;7.95;;;;;;;-144.47;100.00;61586.06;6181175;23;20047;-79
2022/04/08 05:32:08;;;;;;;17.48;9.30;;;;;;;-144.47;100.00;61586.06;6180235;23;20024;-81
2022/04/08 05:34:34;;;;;;;11.88;8.50;;;;;;;-144.47;100.00;61586.06;6180515;23;20033;-84
2022/04/08 05:36:59;;;;;;;12.27;8.20;;;;;;;-144.47;100.00;61586.06;6188844;23;20017;-81
2022/04/08 05:39:25;;;;;;;16.85;9.98;;;;;;;-144.47;100.00;61586.06;6192701;23;20005;-80
2022/04/08 05:41:50;;;;;;;14.23;8.80;;;;;;;-144.47;100.00;61586.06;6189879;23;20019;-81
2022/04/08 05:44:16;;;;;;;11.60;8.13;;;;;;;-144.47;100.00;61586.06;6184986;23;20019;-82
2022/04/08 05:46:41;;;;;;;11.80;8.18;;;;;;;-144.47;100.00;61586.06;6180137;23;20407;-79
2022/04/08 05:49:07;;;;;;;14.63;7.95;;;;;;;-144.47;100.00;61586.06;6152383;23;20119;-78
2022/04/08 05:51:32;;;;;;;13.88;8.02;;;;;;;-144.47;100.00;61586.06;6180390;23;20338;-80
2022/04/08 05:53:58;;;;;;;12.50;8.23;;;;;;;-144.47;100.00;61586.06;6183276;23;20020;-81
2022/04/08 05:56:24;;;;;;;18.17;8.00;;;;;;;-144.47;100.00;61586.06;6183827;23;20009;-84
2022/04/08 05:58:49;;;;;;;12.85;7.97;;;;;;;-144.47;100.00;61586.06;6184902;23;20013;-85
2022/04/08 06:01:15;;;;;;;13.02;7.72;;;;;;;-144.47;100.00;61586.06;6158492;23;20019;-82
2022/04/08 06:03:40;;;;;;;14.05;7.95;;;;;;;-144.47;100.00;61586.06;6184087;23;20009;-81
2022/04/08 06:06:06;;;;;;;14.93;7.40;;;;;;;-144.47;100.00;61586.06;6186067;23;20001;-83
2022/04/08 06:08:31;;;;;;;11.85;8.35;;;;;;;-144.47;100.00;61586.06;6186706;23;20012;-83
2022/04/08 06:10:57;;;;;;;17.52;8.02;;;;;;;-144.47;100.00;61586.06;6186352;23;20128;-83
2022/04/08 06:13:25;;;;;;;14.30;8.65;;;;;;;-144.47;100.00;61586.06;6187929;23;20020;-85
2022/04/08 06:15:53;;;;;;;11.57;7.45;;;;;;;-144.47;100.00;61586.06;6161209;23;20461;-83
2022/04/08 06:18:19;;;;;;;16.88;8.40;;;;;;;-144.47;100.00;61586.06;6186347;23;20009;-83
2022/04/08 06:20:46;;;;;;;13.70;8.55;;;;;;;-144.47;100.00;61586.06;6185729;23;20092;-84
2022/04/08 06:23:12;;;;;;;12.23;7.85;;;;;;;-144.47;100.00;61586.06;6185662;23;20016;-84
2022/04/08 06:25:38;;;;;;;11.93;9.10;;;;;;;-144.47;100.00;61586.06;6159251;23;20009;-83
2022/04/08 06:28:06;;;;;;;15.00;8.18;;;;;;;-144.47;100.00;61586.06;6185915;23;20433;-85
2022/04/08 06:30:37;;;;;;;17.00;8.60;;;;;;;-144.47;100.00;61586.06;6189014;23;20334;-84
2022/04/08 06:33:04;;;;;;;17.38;10.15;;;;;;;-144.47;100.00;61586.06;6187980;23;20021;-84
2022/04/08 06:35:30;;;;;;;17.15;11.07;;;;;;;-144.47;100.00;61586.06;6186537;23;20025;-85
2022/04/08 06:38:06;;;;;;;19.38;11.70;;;;;;;-144.47;100.00;61586.06;6188550;23;20068;-82
2022/04/08 06:40:35;;;;;;;20.38;10.55;;;;;;;-144.47;100.00;61586.06;6207361;23;20017;-83
2022/04/08 06:43:01;;;;;;;13.75;10.25;;;;;;;-144.47;100.00;61586.06;6208776;23;20024;-85
2022/04/08 06:45:27;;;;;;;14.70;8.40;;;;;;;-144.47;100.00;61586.06;6209414;23;20001;-85
2022/04/08 06:47:54;;;;;;;11.27;7.78;;;;;;;-144.47;100.00;61586.06;6208082;23;20004;-84
2022/04/08 06:50:20;;;;;;;17.45;9.65;;;;;;;-144.47;100.00;61586.06;6207693;23;20125;-83
2022/04/08 06:52:46;;;;;;;16.02;9.43;;;;;;;-144.47;100.00;61586.06;6192134;23;20047;-85
2022/04/08 06:55:12;;;;;;;16.88;9.43;;;;;;;-144.47;100.00;61586.06;6163275;23;20021;-84
2022/04/08 06:57:38;;;;;;;11.70;8.35;;;;;;;-144.47;100.00;61586.06;6187079;23;20013;-82
2022/04/08 07:00:06;;;;;;;14.63;9.10;;;;;;;-144.47;100.00;61586.06;6179194;23;20593;-86
2022/04/08 07:02:32;;;;;;;11.50;7.90;;;;;;;-144.47;100.00;61586.06;6208860;23;20067;-83
2022/04/08 07:04:57;;;;;;;16.17;9.13;;;;;;;-144.47;100.00;61586.06;6207653;23;20072;-84
2022/04/08 07:07:27;;;;;;;12.45;8.45;;;;;;;-144.47;100.00;61586.06;6208427;23;20004;-85
2022/04/08 07:09:53;;;;;;;13.27;8.15;;;;;;;-144.47;100.00;61586.06;6208278;23;19989;-83
2022/04/08 07:12:18;;;;;;;15.45;8.48;;;;;;;-144.47;100.00;61586.06;6189447;23;20011;-85
2022/04/08 07:14:43;;;;;;;13.00;9.02;;;;;;;-144.47;100.00;61586.06;6185420;23;20035;-83
2022/04/08 07:17:09;;;;;;;13.50;8.02;;;;;;;-144.47;100.00;61586.06;6184466;23;20040;-83
2022/04/08 07:19:34;;;;;;;15.65;9.10;;;;;;;-144.47;100.00;61586.06;6185130;23;20342;-84
2022/04/08 07:22:00;;;;;;;16.48;7.90;;;;;;;-144.47;100.00;61586.06;6184134;23;20326;-84
2022/04/08 07:24:25;;;;;;;16.05;8.55;;;;;;;-144.47;100.00;61586.06;6184590;23;20009;-85
2022/04/08 07:26:51;;;;;;;22.90;7.60;;;;;;;-144.47;100.00;61586.06;6183171;23;20024;-84
2022/04/08 07:29:16;;;;;;;13.63;8.50;;;;;;;-144.47;100.00;61586.06;6183950;23;20426;-85
2022/04/08 07:31:41;;;;;;;15.95;7.15;;;;;;;-144.47;100.00;61586.06;6156979;23;20080;-83
2022/04/08 07:34:07;;;;;;;14.70;8.38;;;;;;;-144.47;100.00;61586.06;6183422;23;20025;-84
2022/04/08 07:36:32;;;;;;;14.77;7.93;;;;;;;-144.47;100.00;61586.06;6184335;23;20084;-84
2022/04/08 07:38:58;;;;;;;14.82;7.65;;;;;;;-144.47;100.00;61586.06;6185513;23;20012;-84
2022/04/08 07:41:25;;;;;;;15.20;7.32;;;;;;;-144.47;100.00;61586.06;6185605;23;20331;-85
2022/04/08 07:43:50;;;;;;;15.18;7.20;;;;;;;-144.47;100.00;61586.06;6185028;23;20071;-84
2022/04/08 07:46:16;;;;;;;18.38;8.27;;;;;;;-144.47;100.00;61586.06;6185571;23;20389;-84
2022/04/08 07:48:41;;;;;;;15.52;6.43;;;;;;;-144.47;100.00;61586.06;6185162;23;20013;-84
2022/04/08 07:51:06;;;;;;;13.07;7.15;;;;;;;-144.47;100.00;61586.06;6185898;23;20013;-81
2022/04/08 07:53:32;;;;;;;17.58;7.10;;;;;;;-144.47;100.00;61586.06;6159679;23;20021;-84
2022/04/08 07:55:58;;;;;;;22.23;8.43;;;;;;;-144.47;100.00;61586.06;6185538;23;20363;-80
2022/04/08 07:58:23;;;;;;;17.10;5.70;;;;;;;-144.47;100.00;61586.06;6184384;23;20084;-82
2022/04/08 08:00:51;;;;;;;15.40;5.63;;;;;;;-144.47;100.00;61586.06;6180617;23;20043;-82
2022/04/08 08:03:19;;;;;;;15.80;6.32;;;;;;;-144.47;100.00;61586.06;6183446;23;20008;-82
2022/04/08 08:05:45;;;;;;;17.38;5.65;;;;;;;-144.47;100.00;61586.06;6157895;23;20009;-80
2022/04/08 08:08:10;;;;;;;13.45;4.13;;;;;;;-144.47;100.00;61586.06;6184732;23;20080;-83
2022/04/08 08:10:36;;;;;;;17.20;4.85;;;;;;;-144.47;100.00;61586.06;6184508;23;20366;-82
2022/04/08 08:13:03;;;;;;;13.82;4.45;;;;;;;-144.47;100.00;61586.06;6184287;23;20349;-84
2022/04/08 08:15:30;;;;;;;16.23;4.88;;;;;;;-144.47;100.00;61586.06;6189555;23;20013;-85
2022/04/08 08:17:57;;;;;;;15.80;4.40;;;;;;;-144.47;100.00;61586.06;6201169;23;20039;-83
2022/04/08 08:20:23;;;;;;;15.77;4.13;;;;;;;-144.47;100.00;61586.06;6169462;23;20343;-85
2022/04/08 08:22:49;;;;;;;12.20;4.25;;;;;;;-144.47;100.00;61586.06;6189606;23;20020;-86
2022/04/08 08:25:15;;;;;;;11.05;4.07;;;;;;;-144.47;100.00;61586.06;6186446;23;20013;-86
2022/04/08 08:27:51;;;;;;;8.23;4.32;;;;;;;-144.47;100.00;61586.06;6159476;23;20016;-85
2022/04/08 08:30:18;;;;;;;10.55;4.25;;;;;;;-144.47;100.00;61586.06;6186888;23;20017;-85
2022/04/08 08:32:47;;;;;;;12.48;4.25;;;;;;;-144.47;100.00;61586.06;6185092;23;20013;-86
2022/04/08 08:35:14;;;;;;;12.05;3.78;;;;;;;-144.47;100.00;61586.06;6185364;23;20017;-86
2022/04/08 08:37:40;;;;;;;14.30;4.28;;;;;;;-144.47;100.00;61586.06;6187616;23;20001;-86
2022/04/08 08:40:07;;;;;;;18.17;4.40;;;;;;;-144.47;100.00;61586.06;6187025;23;20069;-87
2022/04/08 08:42:36;;;;;;;12.70;5.50;;;;;;;-144.47;100.00;61586.06;6184145;23;20100;-83
2022/04/08 08:45:02;;;;;;;10.68;4.07;;;;;;;-144.47;100.00;61586.06;6158748;23;20104;-85
2022/04/08 08:47:30;;;;;;;10.70;3.97;;;;;;;-144.47;100.00;61586.06;6185154;23;20008;-84
2022/04/08 08:49:56;;;;;;;14.70;4.80;;;;;;;-144.47;100.00;61586.06;6184356;23;20016;-83
2022/04/08 08:52:22;;;;;;;16.70;4.78;;;;;;;-144.47;100.00;61586.06;6163074;23;20013;-83
2022/04/08 08:54:48;;;;;;;22.63;4.70;;;;;;;-144.47;100.00;61586.06;6198648;23;20009;-82
2022/04/08 08:57:15;;;;;;;9.88;4.40;;;;;;;-144.47;100.00;61586.06;6202830;23;20017;-83
2022/04/08 08:59:42;;;;;;;14.98;4.47;;;;;;;-144.47;100.00;61586.06;6203811;23;20009;-82
2022/04/08 09:02:08;;;;;;;13.75;4.47;;;;;;;-144.47;100.00;61586.06;6204142;23;20016;-82
2022/04/08 09:04:39;;;;;;;13.60;4.32;;;;;;;-144.47;100.00;61586.06;6188181;23;20017;-87
2022/04/08 09:07:06;;;;;;;17.98;4.65;;;;;;;-144.47;100.00;61586.06;6164116;23;20012;-85
2022/04/08 09:09:32;;;;;;;18.75;4.32;;;;;;;-144.47;100.00;61586.06;6161386;23;20016;-85
2022/04/08 09:12:14;;;;;;;10.02;3.58;;;;;;;-144.47;100.00;61586.06;6185048;23;20444;-87
2022/04/08 09:14:50;;;;;;;16.35;4.20;;;;;;;-144.47;100.00;61586.06;6159663;23;20084;-87
2022/04/08 09:17:18;;;;;;;11.95;3.70;;;;;;;-144.47;100.00;61586.06;6186534;23;20097;-88
2022/04/08 09:19:48;;;;;;;12.55;4.15;;;;;;;-144.47;100.00;61586.06;6184586;23;20013;-87
2022/04/08 09:22:14;;;;;;;10.90;3.53;;;;;;;-144.47;100.00;61586.06;6184444;23;20009;-87
2022/04/08 09:24:40;;;;;;;8.55;3.22;;;;;;;-144.47;100.00;61586.06;6183641;23;20484;-86
2022/04/08 09:27:06;;;;;;;15.32;4.10;;;;;;;-144.47;100.00;61586.06;6158405;23;20021;-86
2022/04/08 09:29:31;;;;;;;9.75;2.90;;;;;;;-144.47;100.00;61586.06;6186382;23;20485;-85
2022/04/08 09:31:59;;;;;;;11.25;3.80;;;;;;;-144.47;100.00;61586.06;6184435;23;20005;-85
2022/04/08 09:34:25;;;;;;;7.82;3.10;;;;;;;-144.47;100.00;61586.06;6184116;23;20450;-86
2022/04/08 09:36:51;;;;;;;11.10;2.60;;;;;;;-144.47;100.00;61586.06;6183822;23;20059;-78
2022/04/08 09:39:17;;;;;;;13.68;3.72;;;;;;;-144.47;100.00;61586.06;6183708;23;20013;-80
2022/04/08 09:41:49;;;;;;;13.45;3.17;;;;;;;-144.47;100.00;61586.06;6182964;23;20001;-83
2022/04/08 09:44:26;;;;;;;8.55;4.45;;;;;;;-144.47;100.00;61586.06;6181646;23;20350;-79
2022/04/08 09:46:52;;;;;;;10.27;2.88;;;;;;;-144.47;100.00;61586.06;6180181;23;20021;-81
2022/04/08 09:49:17;;;;;;;10.20;2.65;;;;;;;-144.47;100.00;61586.06;6180311;23;20021;-79
2022/04/08 09:51:43;;;;;;;11.70;3.30;;;;;;;-144.47;100.00;61586.06;6129507;23;20338;-79
2022/04/08 09:54:10;;;;;;;10.48;2.63;;;;;;;-144.47;100.00;61586.06;6183246;23;20328;-80
2022/04/08 09:56:37;;;;;;;8.00;2.78;;;;;;;-144.47;100.00;61586.06;6183276;23;20016;-79
2022/04/08 09:59:22;;;;;;;7.38;2.92;;;;;;;-144.47;100.00;61586.06;6182019;23;20008;-78
2022/04/08 10:01:51;;;;;;;9.57;2.70;;;;;;;-144.47;100.00;61586.06;6182468;23;20477;-79
2022/04/08 10:04:19;;;;;;;7.07;3.22;;;;;;;-144.47;100.00;61586.06;6183933;23;20088;-78
2022/04/08 10:06:45;;;;;;;8.88;2.83;;;;;;;-144.47;100.00;61586.06;6182878;23;20005;-78
2022/04/08 10:09:14;;;;;;;12.95;2.50;;;;;;;-144.47;100.00;61586.06;6182144;23;20016;-79
2022/04/08 10:11:57;;;;;;;8.80;2.75;;;;;;;-144.47;100.00;61586.06;6183084;23;20008;-79
2022/04/08 10:14:23;;;;;;;11.32;3.45;;;;;;;-144.47;100.00;61586.06;6182999;23;20013;-78
2022/04/08 10:16:52;;;;;;;7.65;2.83;;;;;;;-144.47;100.00;61586.06;6181515;23;20299;-79
2022/04/08 10:19:18;;;;;;;7.60;2.65;;;;;;;-144.47;100.00;61586.06;6182868;23;20033;-80
2022/04/08 10:21:52;;;;;;;7.93;2.47;;;;;;;-144.47;100.00;61586.06;6182809;23;19997;-79
2022/04/08 10:24:25;;;;;;;11.18;3.63;;;;;;;-144.47;100.00;61586.06;6183182;23;20017;-79
2022/04/08 10:27:12;;;;;;;6.93;2.35;;;;;;;-144.47;100.00;61586.06;6182516;23;20013;-78
2022/04/08 10:29:38;;;;;;;15.02;2.60;;;;;;;-144.47;100.00;61586.06;6183040;23;20449;-79
2022/04/08 10:32:13;;;;;;;9.20;2.75;;;;;;;-144.47;100.00;61586.06;6155973;23;20019;-79
2022/04/08 10:34:39;;;;;;;9.38;2.92;;;;;;;-144.47;100.00;61586.06;6182198;23;20009;-79
2022/04/08 10:37:20;;;;;;;8.02;2.88;;;;;;;-144.47;100.00;61586.06;6180635;23;20311;-80
2022/04/08 10:39:56;;;;;;;10.07;2.35;;;;;;;-144.47;100.00;61586.06;6179751;23;20017;-79
2022/04/08 10:42:23;;;;;;;13.32;3.13;;;;;;;-144.47;100.00;61586.06;6179617;23;20015;-80
2022/04/08 10:44:48;;;;;;;10.45;2.70;;;;;;;-144.47;100.00;61586.06;6182106;23;20096;-79
2022/04/08 10:47:20;;;;;;;5.70;2.00;;;;;;;-144.47;100.00;61586.06;6182538;23;20043;-78
2022/04/08 10:49:51;;;;;;;8.60;2.40;;;;;;;-144.47;100.00;61586.06;6155950;23;20037;-79
2022/04/08 10:52:21;;;;;;;7.53;2.65;;;;;;;-144.47;100.00;61586.06;6182774;23;20013;-79
2022/04/08 10:54:48;;;;;;;9.57;2.80;;;;;;;-144.47;100.00;61586.06;6183061;23;20338;-80
2022/04/08 10:57:13;;;;;;;9.38;2.42;;;;;;;-144.47;100.00;61586.06;6156579;23;20009;-79
2022/04/08 10:59:51;;;;;;;9.02;2.35;;;;;;;-144.47;100.00;61586.06;6182932;23;20025;-79
2022/04/08 11:02:17;;;;;;;7.32;2.13;;;;;;;-144.47;100.00;61586.06;6182535;23;20075;-81